Terminal Aerodrome Forecast
Issued by NWS

Home | Current Version | Previous Version | Text Only | Print | Product List | Glossary On
Versions: 1 2 3 4 5 6 7 8 9 10 11 12 13
000
FTUS41 KPBZ 202339
TAFFKL
TAF
KFKL 202339Z 2100/2124 18006KT 2SM BR OVC008
     FM210200 21005KT 1/2SM FG OVC003
     FM211300 16004KT P6SM OVC006
      AMD NOT SKED=

USA.gov is the U.S. government's official web portal to all federal, state and local government web resources and services.